sensor_id;sensor_type;location;lat;lon;timestamp;pressure;altitude;pressure_sealevel;temperature;humidity
34328;BME280;20588;48.840;10.064;2022-12-18T00:00:46;97528.53;;;-6.63;nan
34328;BME280;20588;48.840;10.064;2022-12-18T00:03:14;97530.19;;;-6.62;nan
34328;BME280;20588;48.840;10.064;2022-12-18T00:05:50;97540.00;;;-6.75;nan
34328;BME280;20588;48.840;10.064;2022-12-18T00:08:18;97530.72;;;-6.73;nan
34328;BME280;20588;48.840;10.064;2022-12-18T00:10:45;97532.19;;;-6.69;nan
34328;BME280;20588;48.840;10.064;2022-12-18T00:13:11;97540.78;;;-6.90;nan
34328;BME280;20588;48.840;10.064;2022-12-18T00:15:39;97550.50;;;-7.01;nan
34328;BME280;20588;48.840;10.064;2022-12-18T00:18:06;97543.44;;;-6.93;nan
34328;BME280;20588;48.840;10.064;2022-12-18T00:20:36;97538.31;;;-7.07;nan
34328;BME280;20588;48.840;10.064;2022-12-18T00:23:03;97539.09;;;-6.89;nan
34328;BME280;20588;48.840;10.064;2022-12-18T00:25:29;97535.97;;;-7.10;nan
34328;BME280;20588;48.840;10.064;2022-12-18T00:27:55;97546.59;;;-7.22;nan
34328;BME280;20588;48.840;10.064;2022-12-18T00:30:21;97545.50;;;-7.16;nan
34328;BME280;20588;48.840;10.064;2022-12-18T00:32:47;97555.56;;;-7.18;nan
34328;BME280;20588;48.840;10.064;2022-12-18T00:35:13;97557.63;;;-7.26;nan
34328;BME280;20588;48.840;10.064;2022-12-18T00:37:39;97559.38;;;-7.28;nan
34328;BME280;20588;48.840;10.064;2022-12-18T00:40:06;97565.50;;;-7.33;nan
34328;BME280;20588;48.840;10.064;2022-12-18T00:42:35;97551.38;;;-7.34;nan
34328;BME280;20588;48.840;10.064;2022-12-18T00:45:20;97562.94;;;-7.32;nan
34328;BME280;20588;48.840;10.064;2022-12-18T00:47:46;97560.06;;;-7.41;nan
34328;BME280;20588;48.840;10.064;2022-12-18T00:50:12;97552.06;;;-7.48;nan
34328;BME280;20588;48.840;10.064;2022-12-18T00:52:39;97563.78;;;-7.16;nan
34328;BME280;20588;48.840;10.064;2022-12-18T00:55:06;97561.25;;;-7.31;nan
34328;BME280;20588;48.840;10.064;2022-12-18T00:57:32;97557.63;;;-7.26;nan
34328;BME280;20588;48.840;10.064;2022-12-18T00:59:59;97562.47;;;-7.23;nan
34328;BME280;20588;48.840;10.064;2022-12-18T01:02:25;97544.56;;;-7.31;nan
34328;BME280;20588;48.840;10.064;2022-12-18T01:04:51;97550.22;;;-7.27;nan
34328;BME280;20588;48.840;10.064;2022-12-18T01:07:17;97545.44;;;-7.32;nan
34328;BME280;20588;48.840;10.064;2022-12-18T01:09:43;97545.06;;;-7.41;nan
34328;BME280;20588;48.840;10.064;2022-12-18T01:12:09;97546.91;;;-7.28;nan
34328;BME280;20588;48.840;10.064;2022-12-18T01:14:36;97538.47;;;-7.25;nan
34328;BME280;20588;48.840;10.064;2022-12-18T01:17:03;97539.56;;;-7.31;nan
34328;BME280;20588;48.840;10.064;2022-12-18T01:19:30;97535.38;;;-7.30;nan
34328;BME280;20588;48.840;10.064;2022-12-18T01:21:56;97533.78;;;-7.31;nan
34328;BME280;20588;48.840;10.064;2022-12-18T01:24:22;97535.16;;;-7.26;nan
34328;BME280;20588;48.840;10.064;2022-12-18T01:26:48;97537.78;;;-7.12;nan
34328;BME280;20588;48.840;10.064;2022-12-18T01:29:14;97545.66;;;-7.19;nan
34328;BME280;20588;48.840;10.064;2022-12-18T01:31:40;97551.88;;;-7.11;nan
34328;BME280;20588;48.840;10.064;2022-12-18T01:34:07;97562.41;;;-7.21;nan
34328;BME280;20588;48.840;10.064;2022-12-18T01:36:35;97563.16;;;-7.19;nan
34328;BME280;20588;48.840;10.064;2022-12-18T01:39:04;97564.31;;;-7.26;nan
34328;BME280;20588;48.840;10.064;2022-12-18T01:41:32;97574.59;;;-7.32;nan
34328;BME280;20588;48.840;10.064;2022-12-18T01:47:25;97570.56;;;-7.18;nan
34328;BME280;20588;48.840;10.064;2022-12-18T01:49:52;97567.38;;;-7.04;nan
34328;BME280;20588;48.840;10.064;2022-12-18T01:52:19;97568.97;;;-7.03;nan
34328;BME280;20588;48.840;10.064;2022-12-18T01:54:47;97575.25;;;-7.12;nan
34328;BME280;20588;48.840;10.064;2022-12-18T01:57:14;97584.97;;;-7.23;nan
34328;BME280;20588;48.840;10.064;2022-12-18T01:59:42;97581.44;;;-7.36;nan
34328;BME280;20588;48.840;10.064;2022-12-18T02:02:08;97581.03;;;-7.44;nan
34328;BME280;20588;48.840;10.064;2022-12-18T02:04:34;97572.84;;;-7.47;nan
34328;BME280;20588;48.840;10.064;2022-12-18T02:09:48;97572.78;;;-7.29;nan
34328;BME280;20588;48.840;10.064;2022-12-18T02:12:18;97562.19;;;-7.17;nan
34328;BME280;20588;48.840;10.064;2022-12-18T02:14:55;97556.50;;;-7.20;nan
34328;BME280;20588;48.840;10.064;2022-12-18T02:17:39;97555.03;;;-7.07;nan
34328;BME280;20588;48.840;10.064;2022-12-18T02:28:28;97559.91;;;-7.38;nan
34328;BME280;20588;48.840;10.064;2022-12-18T02:30:58;97551.59;;;-6.89;nan
34328;BME280;20588;48.840;10.064;2022-12-18T02:33:28;97569.59;;;-7.15;nan
34328;BME280;20588;48.840;10.064;2022-12-18T02:35:56;97550.66;;;-7.19;nan
34328;BME280;20588;48.840;10.064;2022-12-18T02:38:25;97549.63;;;-7.32;nan
34328;BME280;20588;48.840;10.064;2022-12-18T02:40:54;97567.47;;;-7.40;nan
34328;BME280;20588;48.840;10.064;2022-12-18T02:43:20;97581.88;;;-7.45;nan
34328;BME280;20588;48.840;10.064;2022-12-18T02:45:50;97582.84;;;-7.47;nan
34328;BME280;20588;48.840;10.064;2022-12-18T02:48:19;97590.72;;;-7.21;nan
34328;BME280;20588;48.840;10.064;2022-12-18T02:50:59;97588.31;;;-7.07;nan
34328;BME280;20588;48.840;10.064;2022-12-18T02:53:39;97586.13;;;-7.13;nan
34328;BME280;20588;48.840;10.064;2022-12-18T02:56:17;97588.63;;;-7.13;nan
34328;BME280;20588;48.840;10.064;2022-12-18T02:59:09;97585.88;;;-7.24;nan
34328;BME280;20588;48.840;10.064;2022-12-18T03:04:19;97604.06;;;-7.39;nan
34328;BME280;20588;48.840;10.064;2022-12-18T03:06:50;97595.56;;;-7.52;nan
34328;BME280;20588;48.840;10.064;2022-12-18T03:09:27;97596.41;;;-7.36;nan
34328;BME280;20588;48.840;10.064;2022-12-18T03:11:57;97605.31;;;-7.47;nan
34328;BME280;20588;48.840;10.064;2022-12-18T03:14:44;97605.09;;;-7.43;nan
34328;BME280;20588;48.840;10.064;2022-12-18T03:17:14;97609.97;;;-7.40;nan
34328;BME280;20588;48.840;10.064;2022-12-18T03:19:43;97620.31;;;-7.47;nan
34328;BME280;20588;48.840;10.064;2022-12-18T03:22:12;97620.28;;;-7.65;nan
34328;BME280;20588;48.840;10.064;2022-12-18T03:24:39;97629.56;;;-7.67;nan
34328;BME280;20588;48.840;10.064;2022-12-18T03:27:10;97615.72;;;-7.74;nan
34328;BME280;20588;48.840;10.064;2022-12-18T03:29:43;97621.00;;;-7.80;nan
34328;BME280;20588;48.840;10.064;2022-12-18T03:32:17;97604.75;;;-7.70;nan
34328;BME280;20588;48.840;10.064;2022-12-18T03:34:49;97610.09;;;-7.77;nan
34328;BME280;20588;48.840;10.064;2022-12-18T03:37:16;97606.56;;;-7.73;nan
34328;BME280;20588;48.840;10.064;2022-12-18T03:39:42;97587.69;;;-7.79;nan
34328;BME280;20588;48.840;10.064;2022-12-18T03:42:16;97594.97;;;-7.74;nan
34328;BME280;20588;48.840;10.064;2022-12-18T03:45:02;97588.03;;;-7.69;nan
34328;BME280;20588;48.840;10.064;2022-12-18T03:50:26;97594.66;;;-7.85;nan
34328;BME280;20588;48.840;10.064;2022-12-18T03:52:55;97593.97;;;-7.89;nan
34328;BME280;20588;48.840;10.064;2022-12-18T03:55:24;97594.75;;;-7.70;nan
34328;BME280;20588;48.840;10.064;2022-12-18T03:57:53;97595.91;;;-7.77;nan
34328;BME280;20588;48.840;10.064;2022-12-18T04:00:20;97597.00;;;-7.82;nan
34328;BME280;20588;48.840;10.064;2022-12-18T04:02:53;97595.97;;;-7.78;nan
34328;BME280;20588;48.840;10.064;2022-12-18T04:05:20;97599.28;;;-7.78;nan
34328;BME280;20588;48.840;10.064;2022-12-18T04:07:49;97597.09;;;-7.67;nan
34328;BME280;20588;48.840;10.064;2022-12-18T04:10:17;97603.16;;;-7.72;nan
34328;BME280;20588;48.840;10.064;2022-12-18T04:12:44;97603.31;;;-7.75;nan
34328;BME280;20588;48.840;10.064;2022-12-18T04:15:11;97602.81;;;-7.65;nan
34328;BME280;20588;48.840;10.064;2022-12-18T04:17:38;97602.88;;;-7.66;nan
34328;BME280;20588;48.840;10.064;2022-12-18T04:20:05;97602.81;;;-7.65;nan
34328;BME280;20588;48.840;10.064;2022-12-18T04:22:31;97619.94;;;-7.57;nan
34328;BME280;20588;48.840;10.064;2022-12-18T04:24:57;97593.22;;;-7.21;nan
34328;BME280;20588;48.840;10.064;2022-12-18T04:27:23;97590.09;;;-7.09;nan
34328;BME280;20588;48.840;10.064;2022-12-18T04:29:49;97600.13;;;-6.93;nan
34328;BME280;20588;48.840;10.064;2022-12-18T04:32:15;97600.97;;;-7.10;nan
34328;BME280;20588;48.840;10.064;2022-12-18T04:34:42;97607.97;;;-7.16;nan
34328;BME280;20588;48.840;10.064;2022-12-18T04:37:08;97603.19;;;-7.21;nan
34328;BME280;20588;48.840;10.064;2022-12-18T04:39:34;97605.34;;;-7.30;nan
34328;BME280;20588;48.840;10.064;2022-12-18T04:42:01;97614.34;;;-6.94;nan
34328;BME280;20588;48.840;10.064;2022-12-18T04:44:27;97607.06;;;-6.98;nan
34328;BME280;20588;48.840;10.064;2022-12-18T04:46:53;97617.56;;;-6.92;nan
34328;BME280;20588;48.840;10.064;2022-12-18T04:49:19;97616.41;;;-7.02;nan
34328;BME280;20588;48.840;10.064;2022-12-18T04:51:45;97618.53;;;-7.11;nan
34328;BME280;20588;48.840;10.064;2022-12-18T04:54:11;97617.59;;;-7.26;nan
34328;BME280;20588;48.840;10.064;2022-12-18T04:56:37;97631.63;;;-7.23;nan
34328;BME280;20588;48.840;10.064;2022-12-18T04:59:03;97629.06;;;-7.22;nan
34328;BME280;20588;48.840;10.064;2022-12-18T05:01:30;97634.50;;;-7.31;nan
34328;BME280;20588;48.840;10.064;2022-12-18T05:03:56;97628.81;;;-7.34;nan
34328;BME280;20588;48.840;10.064;2022-12-18T05:06:22;97621.06;;;-7.28;nan
34328;BME280;20588;48.840;10.064;2022-12-18T05:08:48;97628.50;;;-7.27;nan
34328;BME280;20588;48.840;10.064;2022-12-18T05:11:15;97631.13;;;-7.30;nan
34328;BME280;20588;48.840;10.064;2022-12-18T05:13:42;97621.63;;;-7.06;nan
34328;BME280;20588;48.840;10.064;2022-12-18T05:16:09;97616.69;;;-7.08;nan
34328;BME280;20588;48.840;10.064;2022-12-18T05:18:36;97626.78;;;-7.09;nan
34328;BME280;20588;48.840;10.064;2022-12-18T05:21:02;97625.47;;;-7.16;nan
34328;BME280;20588;48.840;10.064;2022-12-18T05:23:29;97627.16;;;-7.17;nan
34328;BME280;20588;48.840;10.064;2022-12-18T05:25:57;97627.75;;;-7.29;nan
34328;BME280;20588;48.840;10.064;2022-12-18T05:28:24;97629.06;;;-7.22;nan
34328;BME280;20588;48.840;10.064;2022-12-18T05:30:52;97628.41;;;-6.76;nan
34328;BME280;20588;48.840;10.064;2022-12-18T05:33:20;97634.13;;;-6.74;nan
34328;BME280;20588;48.840;10.064;2022-12-18T05:35:57;97627.88;;;-6.65;nan
34328;BME280;20588;48.840;10.064;2022-12-18T05:38:25;97629.28;;;-6.77;nan
34328;BME280;20588;48.840;10.064;2022-12-18T05:40:53;97625.78;;;-6.90;nan
34328;BME280;20588;48.840;10.064;2022-12-18T05:43:20;97626.53;;;-6.88;nan
34328;BME280;20588;48.840;10.064;2022-12-18T05:45:48;97623.50;;;-6.62;nan
34328;BME280;20588;48.840;10.064;2022-12-18T05:48:15;97621.84;;;-6.46;nan
34328;BME280;20588;48.840;10.064;2022-12-18T05:50:42;97613.00;;;-6.51;nan
34328;BME280;20588;48.840;10.064;2022-12-18T05:53:11;97627.91;;;-6.34;nan
34328;BME280;20588;48.840;10.064;2022-12-18T05:55:39;97625.03;;;-6.42;nan
34328;BME280;20588;48.840;10.064;2022-12-18T05:58:07;97617.91;;;-6.50;nan
34328;BME280;20588;48.840;10.064;2022-12-18T06:00:35;97616.28;;;-6.51;nan
34328;BME280;20588;48.840;10.064;2022-12-18T06:03:02;97627.09;;;-6.50;nan
34328;BME280;20588;48.840;10.064;2022-12-18T06:05:28;97630.88;;;-6.43;nan
34328;BME280;20588;48.840;10.064;2022-12-18T06:07:54;97628.56;;;-6.46;nan
34328;BME280;20588;48.840;10.064;2022-12-18T06:10:20;97639.91;;;-6.56;nan
34328;BME280;20588;48.840;10.064;2022-12-18T06:12:46;97645.75;;;-6.56;nan
34328;BME280;20588;48.840;10.064;2022-12-18T06:15:12;97642.34;;;-6.55;nan
34328;BME280;20588;48.840;10.064;2022-12-18T06:17:38;97630.16;;;-6.61;nan
34328;BME280;20588;48.840;10.064;2022-12-18T06:20:05;97646.63;;;-6.74;nan
34328;BME280;20588;48.840;10.064;2022-12-18T06:22:32;97647.75;;;-6.79;nan
34328;BME280;20588;48.840;10.064;2022-12-18T06:24:58;97647.03;;;-6.81;nan
34328;BME280;20588;48.840;10.064;2022-12-18T06:27:25;97644.13;;;-6.89;nan
34328;BME280;20588;48.840;10.064;2022-12-18T06:29:51;97650.50;;;-6.84;nan
34328;BME280;20588;48.840;10.064;2022-12-18T06:32:17;97656.34;;;-6.68;nan
34328;BME280;20588;48.840;10.064;2022-12-18T06:34:43;97660.47;;;-6.67;nan
34328;BME280;20588;48.840;10.064;2022-12-18T06:37:09;97654.38;;;-6.78;nan
34328;BME280;20588;48.840;10.064;2022-12-18T06:39:35;97649.09;;;-6.57;nan
34328;BME280;20588;48.840;10.064;2022-12-18T06:42:02;97651.41;;;-6.69;nan
34328;BME280;20588;48.840;10.064;2022-12-18T06:44:28;97657.75;;;-6.79;nan
34328;BME280;20588;48.840;10.064;2022-12-18T06:46:55;97652.56;;;-6.92;nan
34328;BME280;20588;48.840;10.064;2022-12-18T06:49:21;97643.38;;;-6.91;nan
34328;BME280;20588;48.840;10.064;2022-12-18T06:51:47;97647.56;;;-6.92;nan
34328;BME280;20588;48.840;10.064;2022-12-18T06:54:13;97633.66;;;-6.80;nan
34328;BME280;20588;48.840;10.064;2022-12-18T06:56:40;97636.06;;;-6.79;nan
34328;BME280;20588;48.840;10.064;2022-12-18T06:59:06;97651.16;;;-6.80;nan
34328;BME280;20588;48.840;10.064;2022-12-18T07:01:32;97654.81;;;-6.87;nan
34328;BME280;20588;48.840;10.064;2022-12-18T07:03:59;97660.94;;;-6.76;nan
34328;BME280;20588;48.840;10.064;2022-12-18T07:06:26;97665.34;;;-6.81;nan
34328;BME280;20588;48.840;10.064;2022-12-18T07:08:53;97675.41;;;-6.82;nan
34328;BME280;20588;48.840;10.064;2022-12-18T07:11:20;97677.84;;;-6.81;nan
34328;BME280;20588;48.840;10.064;2022-12-18T07:13:46;97681.88;;;-6.78;nan
34328;BME280;20588;48.840;10.064;2022-12-18T07:16:18;97686.34;;;-6.68;nan
34328;BME280;20588;48.840;10.064;2022-12-18T07:18:45;97692.84;;;-6.64;nan
34328;BME280;20588;48.840;10.064;2022-12-18T07:21:14;97697.47;;;-6.56;nan
34328;BME280;20588;48.840;10.064;2022-12-18T07:23:40;97683.34;;;-6.42;nan
34328;BME280;20588;48.840;10.064;2022-12-18T07:26:12;97690.22;;;-6.45;nan
34328;BME280;20588;48.840;10.064;2022-12-18T07:28:39;97693.38;;;-6.42;nan
34328;BME280;20588;48.840;10.064;2022-12-18T07:31:11;97701.34;;;-6.51;nan
34328;BME280;20588;48.840;10.064;2022-12-18T07:33:38;97706.78;;;-6.43;nan
34328;BME280;20588;48.840;10.064;2022-12-18T07:36:06;97711.63;;;-6.40;nan
34328;BME280;20588;48.840;10.064;2022-12-18T07:38:33;97712.06;;;-6.16;nan
34328;BME280;20588;48.840;10.064;2022-12-18T07:41:04;97714.09;;;-6.23;nan
34328;BME280;20588;48.840;10.064;2022-12-18T07:43:31;97716.69;;;-6.24;nan
34328;BME280;20588;48.840;10.064;2022-12-18T07:45:57;97719.56;;;-6.16;nan
34328;BME280;20588;48.840;10.064;2022-12-18T07:48:23;97724.72;;;-5.87;nan
34328;BME280;20588;48.840;10.064;2022-12-18T07:50:49;97726.78;;;-5.79;nan
34328;BME280;20588;48.840;10.064;2022-12-18T07:53:15;97733.19;;;-5.89;nan
34328;BME280;20588;48.840;10.064;2022-12-18T07:55:42;97728.09;;;-5.88;nan
34328;BME280;20588;48.840;10.064;2022-12-18T07:58:08;97720.28;;;-5.82;nan
34328;BME280;20588;48.840;10.064;2022-12-18T08:00:34;97715.63;;;-5.74;nan
34328;BME280;20588;48.840;10.064;2022-12-18T08:03:01;97720.41;;;-5.53;nan
34328;BME280;20588;48.840;10.064;2022-12-18T08:05:27;97711.38;;;-5.56;nan
34328;BME280;20588;48.840;10.064;2022-12-18T08:07:54;97707.22;;;-5.57;nan
34328;BME280;20588;48.840;10.064;2022-12-18T08:10:20;97707.63;;;-5.49;nan
34328;BME280;20588;48.840;10.064;2022-12-18T08:12:49;97710.63;;;-5.42;nan
34328;BME280;20588;48.840;10.064;2022-12-18T08:15:16;97709.97;;;-5.46;nan
34328;BME280;20588;48.840;10.064;2022-12-18T08:17:42;97704.88;;;-5.44;nan
34328;BME280;20588;48.840;10.064;2022-12-18T08:20:09;97701.22;;;-5.39;nan
34328;BME280;20588;48.840;10.064;2022-12-18T08:22:36;97705.63;;;-5.13;nan
34328;BME280;20588;48.840;10.064;2022-12-18T08:25:03;97705.28;;;-5.07;nan
34328;BME280;20588;48.840;10.064;2022-12-18T08:27:29;97694.28;;;-5.04;nan
34328;BME280;20588;48.840;10.064;2022-12-18T08:29:56;97704.84;;;-5.13;nan
34328;BME280;20588;48.840;10.064;2022-12-18T08:35:06;97695.22;;;-4.91;nan
34328;BME280;20588;48.840;10.064;2022-12-18T08:37:34;97693.13;;;-4.99;nan
34328;BME280;20588;48.840;10.064;2022-12-18T08:40:00;97693.88;;;-4.97;nan
34328;BME280;20588;48.840;10.064;2022-12-18T08:42:27;97697.84;;;-4.79;nan
34328;BME280;20588;48.840;10.064;2022-12-18T08:45:11;97698.94;;;-4.55;nan
34328;BME280;20588;48.840;10.064;2022-12-18T08:47:37;97702.16;;;-4.67;nan
34328;BME280;20588;48.840;10.064;2022-12-18T08:50:05;97706.88;;;-4.76;nan
34328;BME280;20588;48.840;10.064;2022-12-18T08:52:32;97713.34;;;-4.72;nan
34328;BME280;20588;48.840;10.064;2022-12-18T08:54:58;97711.16;;;-4.49;nan
34328;BME280;20588;48.840;10.064;2022-12-18T08:57:25;97716.56;;;-4.70;nan
34328;BME280;20588;48.840;10.064;2022-12-18T08:59:53;97717.09;;;-4.79;nan
34328;BME280;20588;48.840;10.064;2022-12-18T09:02:19;97707.91;;;-4.51;nan
34328;BME280;20588;48.840;10.064;2022-12-18T09:04:47;97713.81;;;-4.66;nan
34328;BME280;20588;48.840;10.064;2022-12-18T09:07:13;97706.19;;;-4.64;nan
34328;BME280;20588;48.840;10.064;2022-12-18T09:09:40;97705.16;;;-4.32;nan
34328;BME280;20588;48.840;10.064;2022-12-18T09:12:06;97701.56;;;-4.56;nan
34328;BME280;20588;48.840;10.064;2022-12-18T09:14:32;97701.03;;;-4.47;nan
34328;BME280;20588;48.840;10.064;2022-12-18T09:16:58;97697.78;;;-4.35;nan
34328;BME280;20588;48.840;10.064;2022-12-18T09:19:24;97698.63;;;-4.35;nan
34328;BME280;20588;48.840;10.064;2022-12-18T09:21:50;97691.78;;;-4.19;nan
34328;BME280;20588;48.840;10.064;2022-12-18T09:24:17;97683.78;;;-3.97;nan
34328;BME280;20588;48.840;10.064;2022-12-18T09:26:43;97696.09;;;-4.07;nan
34328;BME280;20588;48.840;10.064;2022-12-18T09:29:09;97693.19;;;-3.87;nan
34328;BME280;20588;48.840;10.064;2022-12-18T09:31:36;97693.59;;;-3.80;nan
34328;BME280;20588;48.840;10.064;2022-12-18T09:34:02;97689.91;;;-4.15;nan
34328;BME280;20588;48.840;10.064;2022-12-18T09:36:28;97678.22;;;-4.16;nan
34328;BME280;20588;48.840;10.064;2022-12-18T09:38:54;97681.59;;;-3.89;nan
34328;BME280;20588;48.840;10.064;2022-12-18T09:41:39;97677.16;;;-3.57;nan
34328;BME280;20588;48.840;10.064;2022-12-18T09:44:23;97677.94;;;-3.57;nan
34328;BME280;20588;48.840;10.064;2022-12-18T09:49:29;97668.06;;;-2.32;nan
34328;BME280;20588;48.840;10.064;2022-12-18T09:52:05;97660.59;;;-1.72;nan
34328;BME280;20588;48.840;10.064;2022-12-18T09:54:39;97669.13;;;-1.38;nan
34328;BME280;20588;48.840;10.064;2022-12-18T09:57:06;97674.44;;;-0.61;nan
34328;BME280;20588;48.840;10.064;2022-12-18T09:59:38;97674.47;;;-0.28;nan
34328;BME280;20588;48.840;10.064;2022-12-18T10:02:18;97684.13;;;-0.11;nan
34328;BME280;20588;48.840;10.064;2022-12-18T10:04:53;97688.81;;;-0.40;nan
34328;BME280;20588;48.840;10.064;2022-12-18T10:11:01;97689.63;;;0.70;nan
34328;BME280;20588;48.840;10.064;2022-12-18T10:13:42;97679.94;;;1.27;nan
34328;BME280;20588;48.840;10.064;2022-12-18T10:19:03;97677.66;;;0.72;nan
34328;BME280;20588;48.840;10.064;2022-12-18T10:24:33;97678.69;;;1.62;nan
34328;BME280;20588;48.840;10.064;2022-12-18T10:27:14;97674.66;;;0.67;nan
34328;BME280;20588;48.840;10.064;2022-12-18T10:29:42;97677.91;;;0.04;nan
34328;BME280;20588;48.840;10.064;2022-12-18T10:32:18;97673.88;;;-0.43;nan
34328;BME280;20588;48.840;10.064;2022-12-18T10:34:46;97675.22;;;-0.72;nan
34328;BME280;20588;48.840;10.064;2022-12-18T10:37:17;97680.09;;;-0.92;nan
34328;BME280;20588;48.840;10.064;2022-12-18T10:39:44;97671.22;;;-0.30;nan
34328;BME280;20588;48.840;10.064;2022-12-18T10:42:20;97666.88;;;0.59;nan
34328;BME280;20588;48.840;10.064;2022-12-18T10:44:46;97669.09;;;0.84;nan
34328;BME280;20588;48.840;10.064;2022-12-18T10:47:26;97675.56;;;1.49;nan
34328;BME280;20588;48.840;10.064;2022-12-18T10:49:53;97669.63;;;2.49;nan
34328;BME280;20588;48.840;10.064;2022-12-18T10:52:21;97669.16;;;2.74;nan
34328;BME280;20588;48.840;10.064;2022-12-18T10:54:54;97678.44;;;2.35;nan
34328;BME280;20588;48.840;10.064;2022-12-18T11:02:46;97673.81;;;2.69;nan
34328;BME280;20588;48.840;10.064;2022-12-18T11:05:31;97682.03;;;1.63;nan
34328;BME280;20588;48.840;10.064;2022-12-18T11:07:58;97681.72;;;1.15;nan
34328;BME280;20588;48.840;10.064;2022-12-18T11:10:36;97670.22;;;1.32;nan
34328;BME280;20588;48.840;10.064;2022-12-18T11:13:20;97678.81;;;1.61;nan
34328;BME280;20588;48.840;10.064;2022-12-18T11:15:48;97681.97;;;1.12;nan
34328;BME280;20588;48.840;10.064;2022-12-18T11:18:35;97681.94;;;-0.16;nan
34328;BME280;20588;48.840;10.064;2022-12-18T11:21:09;97676.84;;;-0.38;nan
34328;BME280;20588;48.840;10.064;2022-12-18T11:23:43;97676.88;;;-0.83;nan
34328;BME280;20588;48.840;10.064;2022-12-18T11:26:12;97683.25;;;-1.01;nan
34328;BME280;20588;48.840;10.064;2022-12-18T11:31:20;97686.53;;;-1.23;nan
34328;BME280;20588;48.840;10.064;2022-12-18T11:33:52;97676.03;;;-1.06;nan
34328;BME280;20588;48.840;10.064;2022-12-18T11:36:21;97678.88;;;-1.10;nan
34328;BME280;20588;48.840;10.064;2022-12-18T11:38:49;97667.56;;;-1.28;nan
34328;BME280;20588;48.840;10.064;2022-12-18T11:44:41;97666.75;;;-2.25;nan
34328;BME280;20588;48.840;10.064;2022-12-18T11:48:03;97655.44;;;-2.07;nan
34328;BME280;20588;48.840;10.064;2022-12-18T11:50:20;97651.34;;;-2.33;nan
34328;BME280;20588;48.840;10.064;2022-12-18T11:52:48;97654.84;;;-2.23;nan
34328;BME280;20588;48.840;10.064;2022-12-18T11:55:16;97652.41;;;-2.12;nan
34328;BME280;20588;48.840;10.064;2022-12-18T12:04:05;97648.50;;;-2.16;nan
34328;BME280;20588;48.840;10.064;2022-12-18T12:09:37;97632.38;;;-1.53;nan
34328;BME280;20588;48.840;10.064;2022-12-18T12:15:17;97618.16;;;-1.20;nan
34328;BME280;20588;48.840;10.064;2022-12-18T12:25:46;97610.97;;;-1.02;nan
34328;BME280;20588;48.840;10.064;2022-12-18T12:39:44;97604.16;;;-0.23;nan
34328;BME280;20588;48.840;10.064;2022-12-18T12:42:35;97605.03;;;-0.13;nan
34328;BME280;20588;48.840;10.064;2022-12-18T12:45:30;97599.56;;;-0.62;nan
34328;BME280;20588;48.840;10.064;2022-12-18T12:48:01;97591.94;;;-1.06;nan
34328;BME280;20588;48.840;10.064;2022-12-18T12:50:28;97599.94;;;-1.12;nan
34328;BME280;20588;48.840;10.064;2022-12-18T12:52:59;97593.25;;;-1.24;nan
34328;BME280;20588;48.840;10.064;2022-12-18T12:55:28;97601.94;;;-1.28;nan
34328;BME280;20588;48.840;10.064;2022-12-18T13:00:27;97607.56;;;-1.83;nan
34328;BME280;20588;48.840;10.064;2022-12-18T13:03:12;97614.97;;;-1.93;nan
34328;BME280;20588;48.840;10.064;2022-12-18T13:05:56;97615.19;;;-1.96;nan
34328;BME280;20588;48.840;10.064;2022-12-18T13:08:29;97609.53;;;-2.35;nan
34328;BME280;20588;48.840;10.064;2022-12-18T13:10:57;97616.72;;;-2.79;nan
34328;BME280;20588;48.840;10.064;2022-12-18T13:13:55;97600.81;;;-2.67;nan
34328;BME280;20588;48.840;10.064;2022-12-18T13:16:23;97590.31;;;-2.49;nan
34328;BME280;20588;48.840;10.064;2022-12-18T13:18:56;97594.25;;;-2.57;nan
34328;BME280;20588;48.840;10.064;2022-12-18T13:21:27;97590.38;;;-2.38;nan
34328;BME280;20588;48.840;10.064;2022-12-18T13:23:54;97592.47;;;-2.32;nan
34328;BME280;20588;48.840;10.064;2022-12-18T13:28:54;97587.84;;;-2.38;nan
34328;BME280;20588;48.840;10.064;2022-12-18T13:34:25;97591.44;;;-2.65;nan
34328;BME280;20588;48.840;10.064;2022-12-18T13:36:53;97603.72;;;-2.61;nan
34328;BME280;20588;48.840;10.064;2022-12-18T13:39:22;97593.97;;;-2.78;nan
34328;BME280;20588;48.840;10.064;2022-12-18T13:41:50;97597.66;;;-3.21;nan
34328;BME280;20588;48.840;10.064;2022-12-18T13:44:33;97597.38;;;-3.04;nan
34328;BME280;20588;48.840;10.064;2022-12-18T13:47:05;97593.84;;;-3.26;nan
34328;BME280;20588;48.840;10.064;2022-12-18T13:49:47;97597.34;;;-3.29;nan
34328;BME280;20588;48.840;10.064;2022-12-18T13:52:35;97590.78;;;-3.31;nan
34328;BME280;20588;48.840;10.064;2022-12-18T13:55:06;97601.50;;;-3.15;nan
34328;BME280;20588;48.840;10.064;2022-12-18T13:57:35;97596.84;;;-3.09;nan
34328;BME280;20588;48.840;10.064;2022-12-18T14:02:48;97586.75;;;-3.46;nan
34328;BME280;20588;48.840;10.064;2022-12-18T14:08:10;97589.09;;;-3.31;nan
34328;BME280;20588;48.840;10.064;2022-12-18T14:10:42;97586.78;;;-3.34;nan
34328;BME280;20588;48.840;10.064;2022-12-18T14:13:13;97585.41;;;-3.13;nan
34328;BME280;20588;48.840;10.064;2022-12-18T14:15:43;97590.91;;;-3.20;nan
34328;BME280;20588;48.840;10.064;2022-12-18T14:21:03;97589.22;;;-3.20;nan
34328;BME280;20588;48.840;10.064;2022-12-18T14:23:35;97585.47;;;-3.27;nan
34328;BME280;20588;48.840;10.064;2022-12-18T14:26:19;97586.00;;;-3.22;nan
34328;BME280;20588;48.840;10.064;2022-12-18T14:28:45;97588.59;;;-3.23;nan
34328;BME280;20588;48.840;10.064;2022-12-18T14:31:26;97581.63;;;-3.45;nan
34328;BME280;20588;48.840;10.064;2022-12-18T14:33:52;97596.72;;;-3.45;nan
34328;BME280;20588;48.840;10.064;2022-12-18T14:36:22;97588.38;;;-3.45;nan
34328;BME280;20588;48.840;10.064;2022-12-18T14:38:54;97600.56;;;-3.66;nan
34328;BME280;20588;48.840;10.064;2022-12-18T14:41:21;97598.97;;;-3.67;nan
34328;BME280;20588;48.840;10.064;2022-12-18T14:43:50;97607.72;;;-3.60;nan
34328;BME280;20588;48.840;10.064;2022-12-18T14:48:59;97612.63;;;-3.71;nan
34328;BME280;20588;48.840;10.064;2022-12-18T14:51:29;97600.38;;;-3.63;nan
34328;BME280;20588;48.840;10.064;2022-12-18T14:53:58;97605.78;;;-3.69;nan
34328;BME280;20588;48.840;10.064;2022-12-18T14:56:30;97596.56;;;-3.68;nan
34328;BME280;20588;48.840;10.064;2022-12-18T14:59:03;97605.16;;;-3.73;nan
34328;BME280;20588;48.840;10.064;2022-12-18T15:01:39;97608.06;;;-3.79;nan